In Rescue
 
Open Full Screen Window  High Contrast Mode
Wind Gusting 00 knots
04
July 25, 2021 8:55 AM EDT
Weather Information
Wind Direction
  240 °
Wind Speed
  04 kt (5 mph)
Wind Gust
  00 kt (0 mph)
Altimeter
29.88 in
Visibility
10 SM
Temperature
20° C
68° F
Dewpoint
20° C
68° F
Humidity
100%
Sky Condition
Clear
VFR

METAR KBAX 251255Z AUTO 24004KT 10SM CLR 20/20 A2988 RMK AO2 T02030203

FAA Disclaimer: The data displayed is for advisory purposes only and is not to be used for flight planning or operations.